Tiempo atmosférico en la estación meteorológica de Lugo Aeropuerto, Lugo (445 m.)



Fecha
DESCASC
Temp. máxima en grados centígrados (hora)
DESCASC
Temp. mínima en grados centígrados (hora)
DESCASC
Temp. media en grados centígrados
DESCASC
Racha de viento máxima en m/sg (hora)
DESCASC
Velocidad máxima media en intervalos de 10 minutos(hora)
DESCASC
Precipitaciones diarias en mm
DESCASC
Precipitaciones de 00:00 a 06:00 en mm
DESCASC
Precipitaciones de 06:00 a 12:00 en mm
DESCASC
Precipitaciones de 12:00 a 18:00 en mm
DESCASC
Precipitaciones de 18:00 a 24:00 en mm
DESCASC
29-10-2020 17.4 (16:00) 5.8 (23:30) 11.6 7.5 (14:00) 4.17 (14:00) 0 0 0 0 0
28-10-2020 15.2 (14:30) 9.8 (07:30) 12.5 8.89 (14:50) 5.28 (14:50) 0.2 0.2 0 0 0
27-10-2020 15 (15:00) 8.8 (00:00) 11.9 11.94 (15:00) 5.28 (16:00) 3.6 0 0.2 0 3.4
26-10-2020 13.2 (13:20) 5.4 (00:00) 9.3 9.17 (15:00) 5.56 (14:00) 1.2 0.2 0.2 0.6 0.2
25-10-2020 13.4 (00:00) 6.1 (00:00) 9.7 12.5 (15:40) 6.11 (03:00) 32.4 20.2 4.2 3.8 4.2
24-10-2020 15.5 (14:20) 10.8 (00:00) 13.2 16.11 (17:00) 6.67 (16:30) 6.6 0 0 0 6.6
23-10-2020 15.2 (16:20) 9.7 (00:00) 12.4 8.61 (13:40) 4.72 (15:50) 6 0.2 5.8 0 0
22-10-2020 17.1 (15:10) 7.8 (00:00) 12.5 13.06 (16:30) 6.94 (16:40) 0.2 0 0 0.2 0
21-10-2020 16.6 (16:30) 9.9 (00:00) 13.3 10.56 (16:10) 5 (16:20) 4.2 3.2 0.8 0 0.2
20-10-2020 18.3 (14:10) 12.2 (00:00) 15.2 8.61 (05:30) 3.61 (12:00) 8.6 0 0 1.8 6.8
19-10-2020 21.8 (12:40) 9.2 (00:00) 15.5 11.67 (12:20) 4.44 (14:00) 4.8 0 0 4.8 0
18-10-2020 22.5 (17:30) 3.8 (00:00) 13.1 5 (15:10) 2.78 (15:20) 0 0 0 0 0
17-10-2020 18.5 (18:00) 5.8 (00:00) 12.2 5.83 (14:20) 3.33 (15:00) 0 0 0 0 0
16-10-2020 17.3 (16:40) 0.1 (00:00) 8.7 6.39 (14:10) 3.61 (14:10) 0 0 0 0 0
15-10-2020 14.9 (14:40) 4.1 (00:00) 9.5 6.39 (17:40) 3.33 (18:00) 0 0 0 0 0
14-10-2020 14.3 (17:00) 7.6 (00:00) 11 6.94 (13:50) 3.33 (17:10) 0.6 0.2 0.2 0.2 0
13-10-2020 15.3 (14:50) 8.5 (00:00) 11.9 6.39 (16:00) 3.33 (16:00) 2.2 0.4 1.4 0.4 0
12-10-2020 15.1 (18:10) 3.8 (00:00) 9.5 3.06 (20:50) 1.94 (23:30) 0.6 0 0 0.2 0.4
11-10-2020 15.4 (15:10) 7.7 (00:00) 11.5 10.83 (14:30) 4.72 (14:10) 0 0 0 0 0
10-10-2020 16.7 (15:50) 10.1 (00:00) 13.4 9.72 (12:40) 5 (14:20) 0 0 0 0 0
09-10-2020 21.2 (16:30) 11.3 (00:00) 16.3 6.94 (19:20) 2.78 (19:20) 0 0 0 0 0
08-10-2020 22.4 (17:10) 12.4 (00:00) 17.4 3.89 (18:20) 1.67 (15:20) 0 0 0 0 0
07-10-2020 22.4 (16:20) 14.1 (00:00) 18.3 6.39 (00:50) 2.78 (23:20) 1.6 0.2 1.4 0 0
06-10-2020 19.9 (16:10) 14.8 (00:00) 17.3 10 (13:30) 5.28 (14:40) 0.6 0 0 0.6 0
05-10-2020 15.2 (12:50) 9.1 (00:00) 12.2 8.06 (13:40) 3.61 (14:40) 3 2.8 0 0 0.2
04-10-2020 14.3 (17:10) 9.5 (00:00) 11.9 8.33 (02:50) 4.44 (07:00) 20 2.8 8.2 6.4 2.6
03-10-2020 15.3 (13:40) 7.1 (00:00) 11.2 10 (17:10) 4.44 (13:50) 6.6 3.4 1 0 2.2
02-10-2020 14.9 (01:20) 7.1 (00:00) 11 14.72 (01:50) 7.5 (01:10) 30.6 15.4 6.2 5.6 3.4
01-10-2020 16 (13:30) 11.4 (00:00) 13.7 15.28 (20:20) 7.5 (19:40) 4.8 2.2 0 0 2.6

Gráficas

Temp. máximas Temp. mínimas Temp. medias Precipitaciones Rachas de viento máximas Velocidades máximas media en intervalos de 10 minutos

Datos horarios

Fecha y hora oficial Temperatura (ºC) Velocidad del viento (km/h) Dirección del viento Racha (km/h) Dirección de racha Precipitación (mm) Presión (hPa) Tendencia (hPa) Humedad (%)
2020-10-30 23:00:00 12.8 4 Sudoeste 22 Sur 0 970.7 -0.5 91
2020-10-30 22:00:00 11.3 5 Sur 10 Sur 0 971 0.2 97
2020-10-30 21:00:00 11.9 4 Sur 8 Sur 0 971.2 0.6 90
2020-10-30 20:00:00 12.8 4 Sur 9 Sur 0 971.2 0.6 89
2020-10-30 19:00:00 14.7 4 Sur 9 Sur 0 970.8 -0.2 81
2020-10-30 18:00:00 18.4 3 Sudoeste 20 Sudoeste 0 970.6 -0.8 67
2020-10-30 17:00:00 19.9 11 Sudoeste 25 Sudoeste 0 970.6 -1.1 57
2020-10-30 16:00:00 20.5 13 Sudoeste 24 Oeste 0 971 -1.1 56
2020-10-30 15:00:00 20.2 12 Sudoeste 26 Sudoeste 0 971.4 -1.2 57
2020-10-30 14:00:00 19.6 12 Sudoeste 22 Sudoeste 0 971.7 -1.2 59
2020-10-30 13:00:00 18.2 13 Sudoeste 26 Sudoeste 0 972.1 -0.9 61
2020-10-30 12:00:00 16.5 9 Sudoeste 21 Sudoeste 0 972.6 -- 67
2020-10-30 11:00:00 12.2 3 Nordeste 5 Noroeste 0 972.9 -- 85
2020-10-30 10:00:00 8.8 2 Noroeste 4 Este 0 973 -- 94
2020-10-30 09:00:00 6.4 0 Calma 3 Sudeste 0 972.7 -- 96
2020-10-30 08:00:00 5.3 3 Oeste 11 Sudeste 0 972.3 -- 97
2020-10-30 07:00:00 7 3 Sudoeste 9 Sur 0 972.3 -- 99
2020-10-30 06:00:00 7.2 5 Sur 11 Sur 0 972.4 -- 100
2020-10-30 05:00:00 6.6 4 Sudoeste 12 Sur 0 972.3 -- 100
2020-10-30 04:00:00 3.9 0 Calma 9 Sur 0 972.8 -- 95
2020-10-30 03:00:00 4.5 2 Sur 7 Sudoeste 0 972.7 -- 97
2020-10-30 02:00:00 4.7 4 Sudoeste 6 Sudeste 0 972.8 -- 97
2020-10-30 01:00:00 5.4 2 Sur 11 Sudeste 0 972.9 -- 96
2020-10-30 00:00:00 5.8 4 Sudeste 8 Sur 0 973.1 -- 96
2020-10-29 23:00:00 6.3 4 Sudeste 6 Sudeste 0 973.2 -- 94
2020-10-29 22:00:00 7.1 4 Sudeste 8 Sur 0 973 -- 95
2020-10-29 21:00:00 7.9 4 Sur 6 Sudeste 0 972.8 -- 92
2020-10-29 20:00:00 9.7 3 Sur 6 Sudoeste 0 972.5 -- 87
2020-10-29 19:00:00 12.3 3 Sudoeste 10 Sudoeste 0 972.1 -- 81
2020-10-29 18:00:00 14.5 9 Sudoeste 22 Sudoeste 0 971.9 -- 71
2020-10-29 17:00:00 16.4 11 Sudoeste 21 Sudoeste 0 972.1 -- 64
2020-10-29 16:00:00 17.1 11 Sudoeste 23 Sudoeste 0 972.2 -- 61
2020-10-29 15:00:00 17.1 11 Sudoeste 24 Sudoeste 0 972.7 -- 62
2020-10-29 14:00:00 16.6 15 Sudoeste 27 Oeste 0 973.2 -- 63
2020-10-29 13:00:00 15.9 13 Sudoeste 26 Oeste 0 973.8 -- 63
2020-10-29 12:00:00 14.3 8 Sudoeste 19 Oeste 0 974 -- 69
2020-10-29 11:00:00 12.5 10 Sudoeste 21 Sudoeste 0 973.9 -- 76
2020-10-29 10:00:00 11.5 8 Sudoeste 12 Sudoeste 0 973.5 -- 83
2020-10-29 09:00:00 8.8 4 Sur 6 Sur 0 973.4 -- 90
2020-10-29 08:00:00 9.4 3 Sudoeste 9 Sur 0 972.9 -- 86
2020-10-29 07:00:00 10.3 4 Sudoeste 14 Sur 0 972.7 -- 85
2020-10-29 06:00:00 10.6 4 Sudoeste 10 Sudoeste 0 972.7 -- 85
2020-10-29 05:00:00 10.7 3 Sudoeste 10 Sur 0 972.6 -- 87
2020-10-29 04:00:00 10.9 4 Sur 9 Sur 0 972.9 -- 88
2020-10-29 03:00:00 10.6 4 Sudoeste 16 Sudoeste 0 973.3 -- 90
2020-10-29 02:00:00 10.7 7 Sudoeste 12 Sudoeste 0 973.3 -- 90
2020-10-29 01:00:00 10.3 5 Sur 14 Sur 0 973 -- 94
2020-10-29 00:00:00 11.1 4 Sudoeste 14 Sudoeste 0 972.8 -- 87
2020-10-28 23:00:00 11.1 6 Sudoeste 12 Sur 0 972.7 -- 89
2020-10-28 22:00:00 11 4 Sudoeste 10 Sudoeste 0 972.4 -- 91
2020-10-28 21:00:00 11.2 6 Sudoeste 13 Oeste 0 972.3 -- 89
2020-10-28 20:00:00 12.3 8 Sudoeste 15 Sudoeste 0 971.8 -- 85
2020-10-28 19:00:00 12.8 4 Sudoeste 11 Sur 0 971.3 -- 84
2020-10-28 18:00:00 13.4 7 Sudoeste 19 Sudoeste 0 971.1 -- 80
2020-10-28 17:00:00 14.8 13 Sudoeste 28 Sudoeste 0 970.7 -- 70
2020-10-28 16:00:00 15 15 Oeste 29 Oeste 0 970.5 -- 70
2020-10-28 15:00:00 13.9 17 Sudoeste 32 Sudoeste 0 970.2 -- 78
2020-10-28 14:00:00 14.8 14 Oeste 27 Sudoeste 0 970.4 -- 70
2020-10-28 13:00:00 14.5 14 Sudoeste 28 Sudoeste 0 970.3 -- 76
2020-10-28 12:00:00 13.7 14 Sudoeste 26 Sudoeste 0 970 -- 82
2020-10-28 11:00:00 12.1 9 Sudoeste 21 Sudoeste 0 969.4 -- 89
2020-10-28 10:00:00 11.7 7 Sudoeste 18 Sudeste 0 968.7 -- 85
2020-10-28 09:00:00 10.9 7 Sur 16 Sudoeste 0 968.2 -- 86
2020-10-28 08:00:00 10.3 6 Sudoeste 15 Sudoeste 0 967.4 -- 94
2020-10-28 07:00:00 10.2 5 Sudoeste 14 Sudoeste 0 966.9 -- 94
2020-10-28 06:00:00 10.7 6 Sudoeste 14 Sudoeste 0 966.6 -- 97
2020-10-28 05:00:00 10.7 7 Sudoeste 15 Sudoeste 0 966.1 -- 97
2020-10-28 04:00:00 10.5 7 Sudoeste 19 Sur 0 965.9 -- 97
2020-10-28 03:00:00 10.9 7 Sudoeste 16 Sudoeste 0 965.7 -- 96
2020-10-28 02:00:00 10.4 8 Sudoeste 11 Sudoeste 0 966 -- 99
2020-10-28 01:00:00 10.2 5 Sudoeste 15 Sudoeste 0.2 965.7 -- 96
2020-10-28 00:00:00 11.2 4 Sudoeste 18 Oeste 0.2 965.4 -- 97
2020-10-27 23:00:00 11.7 9 Oeste 18 Oeste 0.2 965.4 -- 99
2020-10-27 22:00:00 11.9 10 Sudoeste 23 Oeste 0.6 964.7 -- 98
2020-10-27 21:00:00 12.6 5 Oeste 19 Oeste 2 963.8 -- 99
2020-10-27 20:00:00 12.9 9 Sudoeste 26 Sudoeste 0.2 963.2 -- 99
2020-10-27 19:00:00 12.7 13 Sudoeste 30 Sudoeste 0.2 962.8 -- 97
2020-10-27 18:00:00 12.9 14 Sudoeste 35 Sur 0 961.9 -- 95
2020-10-27 17:00:00 13.7 13 Sudoeste 40 Sudoeste 0 962 -- 91
2020-10-27 16:00:00 14.2 19 Sudoeste 42 Sudoeste 0 962 -- 85
2020-10-27 15:00:00 14.9 18 Sudoeste 43 Sur 0 962.2 -- 81
2020-10-27 14:00:00 13.3 12 Sudoeste 29 Sur 0 962.9 -- 89
2020-10-27 13:00:00 12.9 15 Sudoeste 35 Sudoeste 0 963.5 -- 86
2020-10-27 12:00:00 12.5 13 Sudoeste 32 Sur 0 963.7 -- 89
2020-10-27 11:00:00 11.6 12 Sudoeste 28 Sudoeste 0.2 963.9 -- 90
2020-10-27 10:00:00 11 10 Sur 26 Sudoeste 0 964.1 -- 91
2020-10-27 09:00:00 10.6 10 Sudoeste 28 Sur 0 963.8 -- 90
2020-10-27 08:00:00 10.2 11 Sudoeste 32 Sudoeste 0 963.9 -- 89
2020-10-27 07:00:00 9.9 10 Sudoeste 30 Sudoeste 0 964 -- 89
2020-10-27 06:00:00 9.8 12 Sudoeste 31 Sudeste 0 964.4 -- 90
2020-10-27 05:00:00 9.5 12 Sur 25 Sur 0 964.3 -- 92
2020-10-27 04:00:00 9.5 9 Sur 28 Sudoeste 0 964.9 -- 91
2020-10-27 03:00:00 9.4 12 Sudoeste 30 Sudoeste 0 965.9 -- 92
2020-10-27 02:00:00 9 13 Sudoeste 28 Sudoeste 0 966.1 -- 94
2020-10-27 01:00:00 9 10 Sudoeste 24 Sudoeste 0 966.6 -- 91
2020-10-27 00:00:00 8.8 8 Sudoeste 23 Sudoeste 0 966.9 -- 95
2020-10-26 23:00:00 8.8 9 Sudoeste 22 Sur 0 967.4 -- 96
2020-10-26 22:00:00 8.7 10 Sudoeste 19 Sudoeste 0.2 967.3 -- 98
2020-10-26 21:00:00 8.6 8 Sudoeste 16 Sudoeste 0 967.7 -- 95
2020-10-26 20:00:00 8.8 10 Sudoeste 19 Sudoeste 0 967.7 -- 95
2020-10-26 19:00:00 8.6 8 Sudoeste 15 Sudoeste 0 967.3 -- 95
2020-10-26 18:00:00 9.6 6 Sudoeste 18 Sudoeste 0 967.2 -- 92
2020-10-26 17:00:00 10.1 13 Sudoeste 23 Oeste 0.2 967.2 -- 86
2020-10-26 16:00:00 11 13 Sudoeste 24 Sudoeste 0 966.9 -- 77
2020-10-26 15:00:00 11.2 15 Oeste 33 Oeste 0.4 967 -- 83
2020-10-26 14:00:00 12.8 20 Oeste 31 Oeste 0 967 -- 69
2020-10-26 13:00:00 12.7 16 Sudoeste 29 Oeste 0 967.3 -- 70
2020-10-26 12:00:00 10.7 12 Sudoeste 23 Sur 0 967.7 -- 84
2020-10-26 11:00:00 9.7 11 Sudoeste 21 Sudoeste 0 967.5 -- 86
2020-10-26 10:00:00 7.5 10 Sudoeste 18 Oeste 0 967.3 -- 94
2020-10-26 09:00:00 6.4 8 Sudoeste 15 Sudoeste 0 966.6 -- 97
2020-10-26 08:00:00 5.7 6 Sudoeste 16 Sudoeste 0.2 965.5 -- 97
2020-10-26 07:00:00 5.7 5 Sudoeste 15 Sudoeste 0 965 -- 94
2020-10-26 06:00:00 5.8 7 Sudoeste 18 Sudoeste 0 964.4 -- 95
2020-10-26 05:00:00 5.4 5 Sudoeste 13 Sudoeste 0 963.9 -- 94
2020-10-26 04:00:00 5.7 5 Sudoeste 15 Sudoeste 0 963.3 -- 95
2020-10-26 03:00:00 6 10 Sudoeste 18 Sudoeste 0 963.3 -- 95
2020-10-26 02:00:00 6.1 11 Sudoeste 19 Sudoeste 0 962.8 -- 95
2020-10-26 01:00:00 6.1 10 Sudoeste 18 Oeste 0.2 962.8 -- 96
2020-10-26 00:00:00 6.2 5 Sudoeste 16 Oeste 1.6 962.4 -- 96
2020-10-25 23:00:00 6.4 7 Sudoeste 20 Sudoeste 0 962.5 -- 95
2020-10-25 22:00:00 6.2 7 Sudoeste 25 Sudoeste 0 961.5 -- 93
2020-10-25 21:00:00 6.5 10 Sudoeste 21 Sudoeste 1 960.7 -- 93
2020-10-25 20:00:00 6.7 11 Sudoeste 25 Oeste 0 961 -- 93
2020-10-25 19:00:00 7.3 13 Sudoeste 32 Oeste 1.6 960 -- 90
2020-10-25 18:00:00 8.1 8 Sudoeste 21 Sur 0 959.7 -- 88
2020-10-25 17:00:00 8.5 9 Sudoeste 21 Oeste 1 959.6 -- 89
2020-10-25 16:00:00 8.1 8 Noroeste 45 Noroeste 1.2 959.7 -- 89
2020-10-25 15:00:00 10.9 11 Sudoeste 18 Sudoeste 0 958.6 -- 89
2020-10-25 14:00:00 9 8 Oeste 32 Oeste 1.6 958.9 -- 92
2020-10-25 13:00:00 12.3 18 Oeste 35 Oeste 0 958.9 -- 76
2020-10-25 12:00:00 9.9 9 Sudoeste 19 Sudoeste 0.2 959.1 -- 94
2020-10-25 11:00:00 9.5 9 Oeste 31 Oeste 0.4 959.3 -- 91
2020-10-25 10:00:00 9.9 13 Oeste 26 Oeste 3 958.5 -- 96
2020-10-25 09:00:00 10.8 8 Sudoeste 23 Sudoeste 0.2 957.5 -- 95
2020-10-25 08:00:00 10.8 8 Sudoeste 17 Sudoeste 0 957.3 -- 97
2020-10-25 07:00:00 10.8 8 Sudoeste 18 Sudoeste 0.4 957.9 -- 95
2020-10-25 06:00:00 11.2 7 Sudoeste 24 Oeste 0 958.1 -- 94
2020-10-25 05:00:00 11.3 11 Oeste 26 Oeste 1.6 957.5 -- 97
2020-10-25 04:00:00 12 13 Oeste 35 Sudoeste 2.2 958 -- 97
2020-10-25 03:00:00 13 22 Oeste 42 Sudoeste 10.2 957.9 -- 97
2020-10-25 02:00:00 13.3 13 Sur 41 Sudoeste 1 956.7 -- 96
2020-10-25 01:00:00 13 16 Sudoeste 42 Sur 2 959.3 -- 96
2020-10-25 00:00:00 13.4 17 Sudoeste 36 Sudoeste 2.8 960.1 -- 96
2020-10-24 23:00:00 13.4 15 Sudoeste 31 Sudoeste 0.4 960.9 -- 95
2020-10-24 22:00:00 13.2 14 Sudoeste 37 Sudoeste 3.4 961.3 -- 96
2020-10-24 21:00:00 14 19 Sudoeste 51 Sudoeste 0 961.6 -- 88
2020-10-24 20:00:00 14.3 23 Sudoeste 54 Sudoeste 0 961.8 -- 84
2020-10-24 19:00:00 14.5 19 Sudoeste 48 Sudoeste 0 962.2 -- 80
2020-10-24 18:00:00 14.2 20 Sudoeste 49 Sudoeste 0 964 -- 87
2020-10-24 17:00:00 14.7 23 Sudoeste 58 Oeste 0 964 -- 83
2020-10-24 16:00:00 15.2 17 Sudoeste 50 Sudoeste 0 964.6 -- 81
2020-10-24 15:00:00 15.3 18 Sudoeste 48 Sudoeste 0 965.4 -- 76
2020-10-24 14:00:00 15.2 16 Sudoeste 39 Sudoeste 0 966.7 -- 77
2020-10-24 13:00:00 14.1 17 Sudoeste 44 Sudoeste 0 967.4 -- 82
2020-10-24 12:00:00 13.5 13 Sudoeste 31 Sudoeste 0 967.8 -- 84
2020-10-24 11:00:00 12.5 12 Sudoeste 34 Sudoeste 0 968.4 -- 86
2020-10-24 10:00:00 12.3 12 Sudoeste 34 Sur 0 968.4 -- 81
2020-10-24 09:00:00 11.9 9 Sudoeste 30 Sur 0 968.3 -- 81
2020-10-24 08:00:00 11.7 10 Sudoeste 27 Sur 0 968.5 -- 82
2020-10-24 07:00:00 11.5 9 Sur 28 Sudoeste 0 969 -- 81
2020-10-24 06:00:00 11.5 10 Sudoeste 28 Sur 0 969.5 -- 79
2020-10-24 05:00:00 11.4 11 Sudoeste 27 Sur 0 969.8 -- 80
2020-10-24 04:00:00 11.4 9 Sudoeste 26 Sudoeste 0 970.4 -- 80
2020-10-24 03:00:00 10.9 9 Sudoeste 23 Sur 0 970.6 -- 82
2020-10-24 02:00:00 11.2 10 Sur 31 Sudoeste 0 971.2 -- 82
2020-10-24 01:00:00 11.3 10 Sudoeste 27 Sur 0 971.2 -- 82
2020-10-24 00:00:00 11.3 10 Sudoeste 26 Sudoeste 0 971.2 -- 80
2020-10-23 23:00:00 11.3 8 Sudoeste 21 Sudoeste 0 971 -- 78
2020-10-23 22:00:00 12.1 8 Sudoeste 19 Sudoeste 0 971.1 -- 74
2020-10-23 21:00:00 12.1 9 Sudoeste 19 Sudoeste 0 970.9 -- 76
2020-10-23 20:00:00 12.4 10 Sudoeste 22 Oeste 0 970.6 -- 76
2020-10-23 19:00:00 12.9 10 Sudoeste 23 Sudoeste 0 970.4 -- 76
2020-10-23 18:00:00 13.7 9 Sudoeste 23 Oeste 0 970 -- 71
2020-10-23 17:00:00 13.8 13 Oeste 27 Oeste 0 969.6 -- 70
2020-10-23 16:00:00 14.3 15 Sudoeste 29 Sudoeste 0 969.2 -- 66
2020-10-23 15:00:00 14.2 10 Sudoeste 24 Sudoeste 0 969 -- 71
2020-10-23 14:00:00 13.2 13 Oeste 31 Oeste 0 969.6 -- 75
2020-10-23 13:00:00 13.6 12 Sudoeste 22 Sudoeste 0 969.3 -- 82
2020-10-23 12:00:00 11.8 11 Sudoeste 22 Sudoeste 0 969 -- 90
2020-10-23 11:00:00 10.5 7 Sudoeste 13 Oeste 0.2 968.7 -- 98
2020-10-23 10:00:00 10 6 Sudoeste 17 Oeste 0 967.7 -- 98
2020-10-23 09:00:00 9.9 5 Sudoeste 16 Sudoeste 1 966.6 -- 99
2020-10-23 08:00:00 9.8 9 Sudoeste 22 Sur 3 966.1 -- 98
2020-10-23 07:00:00 9.8 9 Sudoeste 22 Sur 1.6 965 -- 97
2020-10-23 06:00:00 10 9 Sudoeste 23 Sudoeste 0.2 964.4 -- 94
2020-10-23 05:00:00 10 7 Sudoeste 20 Sudoeste 0 964.3 -- 92
2020-10-23 04:00:00 10.4 7 Sudoeste 18 Sudoeste 0 964.2 -- 90
2020-10-23 03:00:00 10.6 8 Sudoeste 18 Sudoeste 0 964 -- 90
2020-10-23 02:00:00 10.8 7 Sudoeste 17 Sudoeste 0 963.6 -- 88
2020-10-23 01:00:00 10.4 6 Sudoeste 14 Sur 0 963.2 -- 89
2020-10-23 00:00:00 10.2 5 Sudoeste 14 Sudoeste 0 962.8 -- 89
2020-10-22 23:00:00 9.3 4 Sur 10 Sur 0 962.5 -- 92
2020-10-22 22:00:00 10.1 3 Sudeste 11 Sur 0 962.1 -- 89
2020-10-22 21:00:00 10.6 4 Sudoeste 12 Sur 0 961.5 -- 86
2020-10-22 20:00:00 11.6 4 Sur 15 Sudoeste 0 960.6 -- 85
2020-10-22 19:00:00 12.8 9 Sudoeste 22 Sudoeste 0 960.1 -- 79
2020-10-22 18:00:00 14 11 Sudoeste 23 Sudoeste 0 959.6 -- 71
2020-10-22 17:00:00 12.6 10 Sudoeste 47 Sudoeste 0.2 959.4 -- 81
2020-10-22 16:00:00 16.9 12 Oeste 27 Sudoeste 0 958.7 -- 60
2020-10-22 15:00:00 17 12 Sudoeste 31 Sudoeste 0 958.6 -- 60
2020-10-22 14:00:00 15.1 10 Sudoeste 27 Sur 0 959.3 -- 70
2020-10-22 13:00:00 14 9 Sudoeste 21 Sudoeste 0 959.5 -- 79
2020-10-22 12:00:00 12.5 7 Sudoeste 18 Sudoeste 0 959.6 -- 87
2020-10-22 11:00:00 12.1 6 Sudoeste 16 Sur 0 959 -- 87
2020-10-22 10:00:00 11.5 6 Sudoeste 17 Sudoeste 0 958.4 -- 86
2020-10-22 09:00:00 10.2 5 Sudoeste 15 Sur 0 957.6 -- 88
2020-10-22 08:00:00 8.4 5 Sur 10 Sur 0 957.1 -- 92
2020-10-22 07:00:00 8.9 5 Sudoeste 16 Sur 0 956.9 -- 88
2020-10-22 06:00:00 9.2 8 Sur 19 Sudeste 0 956.8 -- 89
2020-10-22 05:00:00 8.5 5 Sur 12 Sur 0 957.1 -- 92
2020-10-22 04:00:00 8.7 6 Sur 16 Sur 0 957.4 -- 95
2020-10-22 03:00:00 8 4 Sur 11 Sur 0 957.3 -- 96
2020-10-22 02:00:00 7.9 4 Sudoeste 9 Sudoeste 0 957.2 -- 98
2020-10-22 01:00:00 8.6 3 Sur 7 Sudeste 0 957.2 -- 93
2020-10-22 00:00:00 9.9 3 Sudeste 10 Sudeste 0 956.8 -- 94
2020-10-21 23:00:00 11.1 3 Sudoeste 9 Oeste 0.2 956.5 -- 92
2020-10-21 22:00:00 11.6 0 Calma 9 Sudoeste 0 956 -- 92
2020-10-21 21:00:00 12.8 4 Sudoeste 14 Sur 0 955.7 -- 87
2020-10-21 20:00:00 13.8 4 Sur 18 Sudoeste 0 955.1 -- 81
2020-10-21 19:00:00 14.8 8 Sudoeste 33 Sudoeste 0 954.5 -- 74
2020-10-21 18:00:00 16.2 13 Sudoeste 33 Sudoeste 0 953.6 -- 63
2020-10-21 17:00:00 15.8 10 Sudoeste 38 Sudoeste 0 953.5 -- 68
2020-10-21 16:00:00 16 14 Sudoeste 37 Sudoeste 0 953.3 -- 68
2020-10-21 15:00:00 15.1 11 Sudoeste 30 Sudoeste 0 953.5 -- 76
2020-10-21 14:00:00 15.8 15 Sudoeste 34 Sudoeste 0 953.6 -- 72
2020-10-21 13:00:00 14.9 13 Sudoeste 32 Sudoeste 0 953.2 -- 78
2020-10-21 12:00:00 13.8 8 Sudoeste 25 Sudoeste 0 953 -- 85
2020-10-21 11:00:00 13.3 11 Sudoeste 22 Oeste 0 952.5 -- 90
2020-10-21 10:00:00 11.9 5 Sudoeste 17 Sudoeste 0 951.9 -- 96
2020-10-21 09:00:00 12 8 Sudoeste 21 Sudoeste 0 950.6 -- 96
2020-10-21 08:00:00 11.8 8 Sudoeste 21 Sudoeste 0.6 949.6 -- 98
2020-10-21 07:00:00 12 9 Sudoeste 20 Sudoeste 0.2 948.6 -- 97
2020-10-21 06:00:00 12.2 10 Sudoeste 27 Sudoeste 0.4 947.4 -- 96
2020-10-21 05:00:00 12.3 11 Sudoeste 29 Sudoeste 0 946.5 -- 95
2020-10-21 04:00:00 12.4 10 Sudoeste 24 Sudoeste 1 945.9 -- 96
2020-10-21 03:00:00 12.3 7 Sudoeste 22 Sur 0 945.7 -- 96
2020-10-21 02:00:00 12.1 7 Sur 18 Sur 0.6 945.2 -- 97
2020-10-21 01:00:00 12.1 6 Sudoeste 13 Sudoeste 1.2 944.7 -- 98
2020-10-21 00:00:00 12.2 4 Sur 10 Sur 1.8 944.1 -- 97
2020-10-20 23:00:00 12.5 3 Sur 6 Sudeste 0.6 943.5 -- 96
2020-10-20 22:00:00 12.8 3 Oeste 8 Noroeste 1.8 944.2 -- 97
2020-10-20 21:00:00 12.8 3 Sudeste 9 Noroeste 0.6 943.5 -- 97
2020-10-20 20:00:00 13.1 4 Sudeste 10 Sur 1.2 944.1 -- 94
2020-10-20 19:00:00 13.7 0 Calma 7 Sudeste 0.8 944.7 -- 94
2020-10-20 18:00:00 14.4 3 Este 12 Sudoeste 1.6 945.8 -- 90
2020-10-20 17:00:00 15.3 5 Sur 17 Sur 0.2 946.5 -- 79
2020-10-20 16:00:00 17.2 5 Sur 20 Sur 0 947.5 -- 69
2020-10-20 15:00:00 18 9 Sur 28 Sur 0 948.7 -- 62
2020-10-20 14:00:00 18.2 11 Sudoeste 28 Sudoeste 0 950.2 -- 63
2020-10-20 13:00:00 16.9 6 Sudoeste 25 Oeste 0 950.9 -- 74
2020-10-20 12:00:00 16 13 Sudoeste 26 Sudoeste 0 951.7 -- 75
2020-10-20 11:00:00 15.3 9 Sudoeste 25 Sudoeste 0 952.1 -- 78
2020-10-20 10:00:00 14 8 Sudoeste 17 Sur 0 952.2 -- 84
2020-10-20 09:00:00 14 7 Sudoeste 21 Sudoeste 0 952.4 -0.5 84
2020-10-20 08:00:00 14.1 9 Sudoeste 19 Sur 0 952.7 -- 83
2020-10-20 07:00:00 14.1 9 Sudoeste 23 Sudoeste 0 952.9 -- 84
2020-10-20 06:00:00 14.5 12 Sudoeste 31 Sur 0 952.9 -1.1 83
2020-10-20 05:00:00 14.4 8 Sudoeste 29 Sur 0 953.1 -1.2 84
2020-10-20 04:00:00 14.1 8 Sudoeste 24 Sudoeste 0 953.8 -- 85
2020-10-20 03:00:00 13.6 8 Sudoeste 23 Sudoeste 0 954 -0.8 86
2020-10-20 02:00:00 13.9 9 Sudoeste 22 Sudoeste 0 954.3 -0.7 84
2020-10-20 01:00:00 14 10 Sudoeste 26 Sudoeste 0 954.7 -- 84
2020-10-20 00:00:00 14 9 Sudoeste 25 Sur 0 954.8 -0.6 84
2020-10-19 23:00:00 13.8 9 Sudoeste 25 Sur 0 955 -0.2 85
2020-10-19 22:00:00 13.5 9 Sur 28 Sur 0 954.7 -- 87
2020-10-19 21:00:00 13.3 11 Sur 33 Sudoeste 0 955.4 -- 89
2020-10-19 20:00:00 13.5 12 Sudoeste 31 Sudoeste 0 955.2 1.2 91
2020-10-19 19:00:00 13.8 11 Sur 28 Sur 0 953.7 -- 86
2020-10-19 18:00:00 13.3 5 Sudoeste 22 Oeste 2.4 954.7 -- 94
2020-10-19 17:00:00 14.2 5 Sur 24 Sur 2.4 954 -- 85
2020-10-19 16:00:00 18.2 12 Sur 32 Sur 0 954.7 -- 53
2020-10-19 15:00:00 19.7 11 Sudoeste 35 Sudoeste 0 955 -- 38
2020-10-19 14:00:00 20.7 16 Sur 41 Sur 0 955.7 -- 34
2020-10-19 13:00:00 21.5 8 Sur 42 Sudeste 0 955.9 -- 36
2020-10-19 12:00:00 20.6 12 Sur 37 Sudoeste 0 956.4 -- 39
2020-10-19 11:00:00 18.9 12 Sudoeste 32 Sudoeste 0 956.8 -- 44
2020-10-19 10:00:00 13.2 4 Sudeste 13 Sur 0 957.1 -- 64
2020-10-19 09:00:00 11.1 4 Sudeste 13 Sur 0 957.6 -- 75
2020-10-19 08:00:00 9.3 2 Este 7 Sur 0 958.4 -- 95
2020-10-19 07:00:00 9.8 3 Noroeste 10 Sur 0 959.2 -- 93
2020-10-19 06:00:00 9.5 2 Sudoeste 9 Noroeste 0 959.7 -- 96
2020-10-19 05:00:00 9.8 2 Sudoeste 7 Sur 0 960.5 -- 94
2020-10-19 04:00:00 10.1 3 Noroeste 12 Sur 0 961.3 -- 94
2020-10-19 03:00:00 10.6 3 Sur 10 Sur 0 962.2 -- 95
2020-10-19 02:00:00 11.1 2 Oeste 4 Noroeste 0 963.2 -- 93
2020-10-19 01:00:00 11.9 0 Calma 10 Sur 0 963.7 -- 89
2020-10-19 00:00:00 11.8 5 Sur 9 Sur 0 963.9 -- 92
2020-10-18 23:00:00 12.1 0 Calma 8 Sudeste 0 964.3 -- 90
2020-10-18 22:00:00 12.2 5 Sudeste 8 Sudeste 0 964.6 -- 92
2020-10-18 21:00:00 13.4 5 Sudeste 8 Sudeste 0 964.9 -- 87
2020-10-18 20:00:00 15.6 6 Sudeste 9 Sudeste 0 964.9 -- 80
2020-10-18 19:00:00 19.4 3 Sudeste 6 Noroeste 0 965 -- 66
2020-10-18 18:00:00 21.2 2 Nordeste 10 Sudoeste 0 965.2 -- 51
2020-10-18 17:00:00 22.3 5 Sudoeste 16 Sudeste 0 965.5 -- 43
2020-10-18 16:00:00 22.2 6 Sudoeste 18 Oeste 0 966 -- 45
2020-10-18 15:00:00 19.8 8 Sudoeste 14 Sudoeste 0 966.7 -- 55
2020-10-18 14:00:00 18.2 7 Oeste 15 Sudoeste 0 967.4 -- 61
2020-10-18 13:00:00 16.8 4 Nordeste 10 Nordeste 0 967.4 -- 76
2020-10-18 12:00:00 12.1 3 Este 5 Este 0 967.6 -- 88
2020-10-18 11:00:00 8.1 4 Noroeste 9 Noroeste 0 967.6 -- 96
2020-10-18 10:00:00 6.4 0 Calma 6 Oeste 0 967.1 -- 98
2020-10-18 09:00:00 3.9 4 Sudoeste 6 Oeste 0 966.4 -- 97
2020-10-18 08:00:00 4.5 0 Calma 5 Sudeste 0 966.7 -- 98
2020-10-18 07:00:00 5.2 3 Sudeste 7 Noroeste 0 966.4 -- 98
2020-10-18 06:00:00 5.9 4 Sudeste 7 Sudeste 0 966 -- 98
2020-10-18 05:00:00 5.8 0 Calma 4 Sudeste 0 966.5 -- 96
2020-10-18 04:00:00 6.2 0 Calma 5 Sudoeste 0 966.5 -- 97
2020-10-18 03:00:00 6.8 0 Calma 4 Sudoeste 0 966.1 -- 97
2020-10-18 02:00:00 6.9 3 Sudeste 5 Sudeste 0 966.2 -- 96
2020-10-18 01:00:00 7.3 3 Sur 6 Sudeste 0 966.3 -- 95
2020-10-18 00:00:00 8 3 Sur 8 Sudeste 0 966.3 -- 97
2020-10-17 23:00:00 8.7 3 Sudeste 7 Sudeste 0 966.1 -- 93
2020-10-17 22:00:00 9.8 0 Calma 6 Sudeste 0 965.7 -- 89
2020-10-17 21:00:00 11.2 4 Sudoeste 9 Sur 0 965.6 -- 86
2020-10-17 20:00:00 13.5 3 Sudeste 10 Sudoeste 0 965.2 -- 82
2020-10-17 19:00:00 16.7 4 Sudoeste 15 Sudoeste 0 964.7 -- 67
2020-10-17 18:00:00 18.1 6 Sur 19 Sur 0 964.5 -- 61
2020-10-17 17:00:00 18 7 Sudoeste 17 Sudoeste 0 964.3 -- 62
2020-10-17 16:00:00 17 6 Sudoeste 15 Sur 0 964.4 -- 63
2020-10-17 15:00:00 16.6 12 Sudoeste 21 Sudoeste 0 964.6 -- 62
2020-10-17 14:00:00 15.5 6 Sur 19 Sudoeste 0 964.7 -- 60
2020-10-17 13:00:00 13.9 5 Sur 19 Sudoeste 0 964.5 -- 59
2020-10-17 12:00:00 12.2 0 Calma 6 Nordeste 0 964.2 -- 67
2020-10-17 11:00:00 11.3 3 Nordeste 8 Nordeste 0 963.8 -- 75
2020-10-17 10:00:00 9.9 3 Sudeste 12 Sur 0 963.5 -- 81
2020-10-17 09:00:00 8.7 4 Sur 8 Noroeste 0 963.1 -- 82
2020-10-17 08:00:00 8.3 5 Sudoeste 15 Sur 0 963 -- 85
2020-10-17 07:00:00 7.8 3 Sudoeste 13 Sur 0 963.1 -- 88
2020-10-17 06:00:00 7.1 4 Sur 10 Sur 0 962.9 -- 91
2020-10-17 05:00:00 7.7 5 Sudoeste 11 Sudoeste 0 962.8 -- 90
2020-10-17 04:00:00 7.7 3 Sudoeste 15 Sur 0 963.3 -- 92
2020-10-17 03:00:00 6.2 3 Sur 8 Sudeste 0 963.6 -- 96
2020-10-17 02:00:00 5.8 2 Este 6 Norte 0 964.3 -- 95
2020-10-17 01:00:00 6.7 2 Sudoeste 10 Sudeste 0 964.3 -- 94
2020-10-17 00:00:00 6.7 3 Sur 6 Sudeste 0 964.5 -- 94
2020-10-16 23:00:00 7.1 3 Sur 6 Noroeste 0 964.9 -- 92
2020-10-16 22:00:00 7.8 3 Sudeste 9 Sur 0 965 -- 91
2020-10-16 21:00:00 9.1 2 Sur 7 Sudeste 0 965.2 -- 85
2020-10-16 20:00:00 11.6 2 Sur 8 Sudeste 0 965.1 -- 81
2020-10-16 19:00:00 14.5 4 Sudeste 5 Sudeste 0 965 -- 70
2020-10-16 18:00:00 16.1 2 Sudoeste 14 Oeste 0 965.3 -- 57
2020-10-16 17:00:00 17.1 7 Oeste 15 Sudoeste 0 965.7 -- 49
2020-10-16 16:00:00 17 7 Sudoeste 22 Sudoeste 0 966 -- 49
2020-10-16 15:00:00 15.8 9 Sudoeste 23 Sudoeste 0 966.6 -- 49
2020-10-16 14:00:00 15.3 6 Sudoeste 16 Sudoeste 0 967.3 -- 50
2020-10-16 13:00:00 12.6 3 Norte 9 Noroeste 0 967.7 -- 69
2020-10-16 12:00:00 9.9 2 Norte 6 Este 0 968.3 -- 80
2020-10-16 11:00:00 6.3 2 Este 6 Nordeste 0 968.6 0.5 89
2020-10-16 10:00:00 2.2 3 Nordeste 6 Sudeste 0 968.3 0.1 96
2020-10-16 09:00:00 0.2 3 Sur 5 Sudeste 0 968 -0.4 96
2020-10-16 08:00:00 0.3 3 Sudeste 5 Sudeste 0 968.1 -- 98
2020-10-16 07:00:00 0.9 3 Sur 7 Sudeste 0 968.2 -- 98
2020-10-16 06:00:00 1 2 Sur 7 Sudeste 0 968.4 -- 97
2020-10-16 05:00:00 1.4 4 Sudeste 9 Sudeste 0 968.5 -- 99
2020-10-16 04:00:00 1.8 2 Sudeste 10 Este 0 969.1 -- 98
2020-10-16 03:00:00 2.3 3 Sudoeste 9 Sudeste 0 969.5 -- 98
2020-10-16 02:00:00 2.9 3 Sudoeste 5 Sudeste 0 969.6 -- 97
2020-10-16 01:00:00 3.6 0 Calma 10 Este 0 969.7 -- 95
2020-10-16 00:00:00 4.1 2 Sur 7 Sudeste 0 970 -- 94
2020-10-15 23:00:00 5.1 3 Norte 5 Este 0 969.8 -- 96
2020-10-15 22:00:00 6.4 4 Este 7 Sudeste 0 969.6 -- 94
2020-10-15 21:00:00 8 0 Calma 5 Este 0 969.5 -- 87
2020-10-15 20:00:00 9.8 3 Nordeste 18 Nordeste 0 969.2 -- 82
2020-10-15 19:00:00 11.6 7 Nordeste 21 Nordeste 0 968.7 -- 75
2020-10-15 18:00:00 13.1 12 Nordeste 23 Este 0 968.6 -0.5 65
2020-10-15 17:00:00 13.3 10 Nordeste 21 Nordeste 0 968.6 -- 75
2020-10-15 16:00:00 13.1 5 Norte 17 Norte 0 968.9 -- 79
2020-10-15 15:00:00 14 4 Norte 17 Nordeste 0 969.1 -- 72
2020-10-15 14:00:00 12.8 3 Noroeste 9 Noroeste 0 969.6 -- 80
2020-10-15 13:00:00 10.9 3 Este 6 Nordeste 0 970.1 -- 89
2020-10-15 12:00:00 10.5 4 Norte 10 Sudoeste 0 969.9 -- 89
2020-10-15 11:00:00 9.3 3 Sudoeste 9 Oeste 0 969.6 -- 99
2020-10-15 10:00:00 8 4 Sudoeste 8 Sudoeste 0 969.1 -- 100
2020-10-15 09:00:00 7 2 Sudoeste 4 Este 0 968.8 -- 100
2020-10-15 08:00:00 6.6 2 Sur 4 Sur 0 968.3 -- 94
2020-10-15 07:00:00 8.4 3 Sudeste 4 Sudeste 0 968.3 -- 97
2020-10-15 06:00:00 8.4 0 Calma 3 Sur 0 968.1 -- 98
2020-10-15 05:00:00 8.8 0 Calma 4 Sudoeste 0 968.1 -- 98
2020-10-15 04:00:00 8.3 0 Calma 6 Sudoeste 0 968.5 -- 98
2020-10-15 03:00:00 8.1 4 Sudoeste 7 Oeste 0 968.5 -- 100
2020-10-15 02:00:00 7.3 2 Sur 8 Sudeste 0 968.5 -- 97
2020-10-15 01:00:00 8.1 3 Sur 5 Sudeste 0 968.2 -- 95
2020-10-15 00:00:00 8.5 3 Sur 4 Sudeste 0 968.2 -- 94
2020-10-14 23:00:00 8.7 0 Calma 6 Oeste 0 968.2 -- 93
2020-10-14 22:00:00 10 3 Noroeste 9 Noroeste 0 967.9 -- 93
2020-10-14 21:00:00 10.5 0 Calma 7 Nordeste 0 967.6 -- 87
2020-10-14 20:00:00 11.2 3 Norte 13 Nordeste 0 967.3 -- 83
2020-10-14 19:00:00 12.6 6 Nordeste 20 Nordeste 0 966.8 -- 70
2020-10-14 18:00:00 13.8 10 Nordeste 20 Nordeste 0 966.4 -- 63
2020-10-14 17:00:00 14 10 Nordeste 23 Nordeste 0 966.3 -- 63
2020-10-14 16:00:00 13.3 7 Nordeste 21 Este 0 966.3 -- 71
2020-10-14 15:00:00 13.3 5 Norte 17 Este 0 966.3 -- 78
2020-10-14 14:00:00 11.9 10 Nordeste 25 Este 0.2 966.6 -- 85
2020-10-14 13:00:00 11.4 5 Nordeste 14 Este 0 966.8 -- 86
2020-10-14 12:00:00 10.9 3 Noroeste 10 Noroeste 0 966.7 -- 95
2020-10-14 11:00:00 9.7 4 Noroeste 10 Oeste 0.2 966.6 -- 97
2020-10-14 10:00:00 8.9 4 Oeste 7 Sudoeste 0 966.2 -- 99
2020-10-14 09:00:00 7.7 0 Calma 5 Oeste 0 965.7 -- 98
2020-10-14 08:00:00 8.1 3 Sudoeste 6 Oeste 0 965.6 -- 96
2020-10-14 07:00:00 8.6 3 Oeste 7 Oeste 0 965.6 -- 98
2020-10-14 06:00:00 8.6 4 Sudoeste 6 Oeste 0 965.5 -- 98
2020-10-14 05:00:00 9 2 Sudoeste 5 Oeste 0 965.4 -- 96
2020-10-14 04:00:00 9.1 0 Calma 5 Oeste 0.2 965.9 -- 97
2020-10-14 03:00:00 9.1 2 Sudeste 5 Noroeste 0 966.4 -- 97
2020-10-14 02:00:00 9.1 2 Sudoeste 6 Oeste 0 966.6 -- 97
2020-10-14 01:00:00 9.1 3 Oeste 5 Oeste 0 966.9 -- 97
2020-10-14 00:00:00 9 0 Calma 5 Oeste 0 967.2 -- 98
2020-10-13 23:00:00 8.5 0 Calma 4 Noroeste 0 967.4 -- 95
2020-10-13 22:00:00 9.8 3 Norte 15 Noroeste 0 967.3 -- 93
2020-10-13 21:00:00 10.3 4 Noroeste 10 Nordeste 0 967.5 -- 89
2020-10-13 20:00:00 10.9 3 Norte 13 Norte 0 967.1 -- 84
2020-10-13 19:00:00 11.9 5 Norte 19 Nordeste 0 967.2 -- 84
2020-10-13 18:00:00 12.2 3 Sudeste 6 Este 0.2 967.1 -- 90
2020-10-13 17:00:00 11.6 3 Norte 21 Noroeste 0.2 967.8 -- 93
2020-10-13 16:00:00 13.6 12 Noroeste 23 Norte 0 967.9 -- 81
2020-10-13 15:00:00 15 7 Noroeste 18 Noroeste 0 968.4 -- 67
2020-10-13 14:00:00 14 5 Noroeste 16 Noroeste 0 969 -- 72
2020-10-13 13:00:00 13.3 4 Noroeste 17 Noroeste 0 969.4 -- 84
2020-10-13 12:00:00 12.9 8 Noroeste 15 Norte 0 969.6 0.2 86
2020-10-13 11:00:00 12.4 4 Noroeste 14 Nordeste 0 969.6 -- 94
2020-10-13 10:00:00 12.2 3 Nordeste 8 Noroeste 0.2 969.6 0.3 98
2020-10-13 09:00:00 12.1 2 Nordeste 9 Este 0 969.4 -- 99
2020-10-13 08:00:00 12.5 2 Norte 15 Este 0.2 969.5 -- 99
2020-10-13 07:00:00 13.1 6 Nordeste 12 Nordeste 1 969.3 -- 98
2020-10-13 06:00:00 14.2 3 Noroeste 9 Noroeste 0 969.4 -1.1 100
2020-10-13 05:00:00 14.2 2 Oeste 18 Oeste 0 969.5 -- 100
2020-10-13 04:00:00 -- -- -- -- -- -- -- -- --
2020-10-13 03:00:00 13.9 5 Sudoeste 11 Oeste 0 970.5 -1.8 100
2020-10-13 02:00:00 14 6 Sudoeste 12 Sudoeste 0.2 971.2 -- 99
2020-10-13 01:00:00 -- -- -- -- -- -- -- -- --
2020-10-13 00:00:00 14.2 6 Oeste 11 Oeste 0.2 972.3 -0.7 99
2020-10-12 23:00:00 14.5 2 Oeste 10 Oeste 0 972.6 -- 97
2020-10-12 22:00:00 14.7 4 Oeste 9 Sudoeste 0 972.8 -0.3 97
2020-10-12 21:00:00 14.8 2 Oeste 11 Oeste 0 973 -- 98
2020-10-12 20:00:00 14.8 3 Sudoeste 7 Sudoeste 0.2 973.1 -- 96
2020-10-12 19:00:00 14.9 3 Sudoeste 7 Sur 0 973.1 -- 95
2020-10-12 18:00:00 -- -- -- -- -- -- -- -- --
2020-10-12 17:00:00 14.9 3 Oeste 6 Oeste 0 973.8 -- 89
2020-10-12 16:00:00 14.2 3 Sudeste 7 Sur 0.2 974.4 -- 92
2020-10-12 15:00:00 14.2 4 Sudoeste 9 Oeste 0 975.2 -1 84
2020-10-12 14:00:00 14 4 Noroeste 9 Noroeste 0 975.8 -- 80
2020-10-12 13:00:00 13.6 3 Noroeste 6 Noroeste 0 976.1 -0.5 76
2020-10-12 12:00:00 11.7 3 Sudeste 8 Sur 0 976.2 -- 82
2020-10-12 11:00:00 8 3 Sudeste 6 Sudeste 0 976.7 -- 99
2020-10-12 10:00:00 6.3 3 Norte 6 Sudeste 0 976.6 -- 100
2020-10-12 09:00:00 4.4 0 Calma 6 Sur 0 -- -- 100
2020-10-12 08:00:00 4.1 0 Calma 5 Sur 0 -- -- 95
2020-10-12 07:00:00 4.3 3 Sur 5 Sudeste 0 -- -- 95
2020-10-12 06:00:00 5.2 3 Sudeste 7 Sudeste 0 -- -- 96
2020-10-12 05:00:00 6.4 3 Sur 5 Sudeste 0 -- -- 92
2020-10-12 04:00:00 -- -- -- -- -- -- -- -- --
2020-10-12 03:00:00 7.2 2 Noroeste 4 Sur 0 -- -- 98
2020-10-12 02:00:00 6.6 2 Sur 4 Sur 0 -- -- 97
2020-10-12 01:00:00 6.7 2 Sudoeste 4 Oeste 0 -- -- 93
2020-10-12 00:00:00 7.7 0 Calma 7 Nordeste 0 -- -- 92
2020-10-11 23:00:00 8.7 0 Calma 5 Este 0 -- -- 92
2020-10-11 22:00:00 8.2 0 Calma 5 Noroeste 0 -- -- 89
2020-10-11 21:00:00 -- -- -- -- -- -- -- -- --
2020-10-11 20:00:00 -- -- -- -- -- -- -- -- --
2020-10-11 19:00:00 11.9 6 Nordeste 23 Nordeste 0 -- -- 74
2020-10-11 18:00:00 13.6 10 Nordeste 30 Sudeste 0 -- -- 62
2020-10-11 17:00:00 13.8 14 Nordeste 35 Nordeste 0 -- -- 59
2020-10-11 16:00:00 14.4 14 Nordeste 32 Nordeste 0 -- -- 56
2020-10-11 15:00:00 15 12 Nordeste 39 Este 0 -- -- 53
2020-10-11 14:00:00 14.3 13 Nordeste 28 Nordeste 0 -- -- 56
2020-10-11 13:00:00 13.1 14 Nordeste 33 Nordeste 0 -- -- 60
2020-10-11 12:00:00 12.7 15 Este 27 Nordeste 0 -- -- 64
2020-10-11 11:00:00 12.5 12 Nordeste 24 Este 0 -- -- 69
2020-10-11 10:00:00 9.4 4 Nordeste 12 Nordeste 0 -- -- 90
2020-10-11 09:00:00 -- -- -- -- -- -- -- -- --
2020-10-11 08:00:00 -- -- -- -- -- -- -- -- --
2020-10-11 07:00:00 -- -- -- -- -- -- -- -- --
2020-10-11 06:00:00 -- -- -- -- -- -- -- -- --
2020-10-11 05:00:00 -- -- -- -- -- -- -- -- --
2020-10-11 04:00:00 -- -- -- -- -- -- -- -- --
2020-10-11 03:00:00 -- -- -- -- -- -- -- -- --
2020-10-11 02:00:00 -- -- -- -- -- -- -- -- --
2020-10-11 01:00:00 -- -- -- -- -- -- -- -- --
2020-10-11 00:00:00 -- -- -- -- -- -- -- -- --
2020-10-10 23:00:00 -- -- -- -- -- -- -- -- --
2020-10-10 22:00:00 -- -- -- -- -- -- -- -- --
2020-10-10 21:00:00 -- -- -- -- -- -- -- -- --
2020-10-10 20:00:00 -- -- -- -- -- -- -- -- --
2020-10-10 19:00:00 -- -- -- -- -- -- -- -- --
2020-10-10 18:00:00 -- -- -- -- -- -- -- -- --
2020-10-10 17:00:00 -- -- -- -- -- -- -- -- --
2020-10-10 16:00:00 -- -- -- -- -- -- -- -- --
2020-10-10 15:00:00 -- -- -- -- -- -- -- -- --
2020-10-10 14:00:00 -- -- -- -- -- -- -- -- --
2020-10-10 13:00:00 -- -- -- -- -- -- -- -- --
2020-10-10 12:00:00 -- -- -- -- -- -- -- -- --
2020-10-10 11:00:00 -- -- -- -- -- -- -- -- --
2020-10-10 10:00:00 -- -- -- -- -- -- -- -- --
2020-10-10 09:00:00 -- -- -- -- -- -- -- -- --
2020-10-10 08:00:00 -- -- -- -- -- -- -- -- --
2020-10-10 07:00:00 -- -- -- -- -- -- -- -- --
2020-10-10 06:00:00 -- -- -- -- -- -- -- -- --
2020-10-10 05:00:00 -- -- -- -- -- -- -- -- --
2020-10-10 04:00:00 -- -- -- -- -- -- -- -- --
2020-10-10 03:00:00 -- -- -- -- -- -- -- -- --
2020-10-10 02:00:00 -- -- -- -- -- -- -- -- --
2020-10-10 01:00:00 -- -- -- -- -- -- -- -- --
2020-10-10 00:00:00 -- -- -- -- -- -- -- -- --
2020-10-09 23:00:00 -- -- -- -- -- -- -- -- --
2020-10-09 22:00:00 -- -- -- -- -- -- -- -- --
2020-10-09 21:00:00 -- -- -- -- -- -- -- -- --
2020-10-09 20:00:00 -- -- -- -- -- -- -- -- --
2020-10-09 19:00:00 -- -- -- -- -- -- -- -- --
2020-10-09 18:00:00 18.6 6 Nordeste 16 Este 0 972.4 -- 73
2020-10-09 17:00:00 20.8 6 Noroeste 13 Norte 0 972.1 -- 58
2020-10-09 16:00:00 20.2 5 Norte 12 Nordeste 0 972.1 -- 59
2020-10-09 15:00:00 19.5 5 Nordeste 13 Nordeste 0 972.6 -- 64
2020-10-09 14:00:00 19 4 Sur 10 Sur 0 973 -- 68
2020-10-09 13:00:00 16.1 4 Sudeste 10 Este 0 973.4 -- 81
2020-10-09 12:00:00 14 3 Sudeste 7 Oeste 0 973.5 -- 90
2020-10-09 11:00:00 13 2 Oeste 6 Noroeste 0 973.2 -- 96
2020-10-09 10:00:00 11.6 3 Sudeste 7 Sudeste 0 972.5 -- 97
2020-10-09 09:00:00 11.4 2 Sur 7 Sur 0 971.9 -- 99
2020-10-09 08:00:00 12.4 2 Sudeste 5 Sur 0 971.7 -- 98
2020-10-09 07:00:00 12.4 0 Calma 3 Norte 0 971.4 -- 99
2020-10-09 06:00:00 12.7 0 Calma 6 Noroeste 0 971.2 -- 98
2020-10-09 05:00:00 13.2 3 Noroeste 6 Noroeste 0 971.2 -- 98
2020-10-09 04:00:00 13.6 0 Calma 5 Oeste 0 971.5 -- 96
2020-10-09 03:00:00 14 2 Oeste 5 Noroeste 0 971.4 -- 96
2020-10-09 02:00:00 13.9 2 Norte 5 Noroeste 0 971.7 -- 98
2020-10-09 01:00:00 13.7 2 Sur 3 Sudeste 0 971.7 -- 97
2020-10-09 00:00:00 14.2 0 Calma 5 Nordeste 0 971.5 -- 93
2020-10-08 23:00:00 15.4 2 Este 5 Nordeste 0 971.6 -- 94
2020-10-08 22:00:00 15.8 2 Noroeste 8 Nordeste 0 971.5 -- 93
2020-10-08 21:00:00 15.6 2 Nordeste 12 Nordeste 0 971.2 -- 93
2020-10-08 20:00:00 17.5 3 Nordeste 11 Norte 0 970.8 -- 85
2020-10-08 19:00:00 20 3 Norte 14 Norte 0 970 -- 75
2020-10-08 18:00:00 21.8 5 Norte 13 Noroeste 0 969.7 -- 68
2020-10-08 17:00:00 22.1 5 Noroeste 10 Sudoeste 0 969.6 -- 65
2020-10-08 16:00:00 20.6 3 Noroeste 11 Nordeste 0 969.7 -- 71
2020-10-08 15:00:00 18.9 4 Este 10 Este 0 970.3 -- 76
2020-10-08 14:00:00 16.3 4 Oeste 8 Oeste 0 971.1 -- 84
2020-10-08 13:00:00 14.8 3 Sudeste 8 Este 0 971.2 -- 93
2020-10-08 12:00:00 13.8 3 Sudeste 8 Este 0 971.3 -- 95
2020-10-08 11:00:00 13.2 3 Sudeste 7 Sudeste 0 971.2 -- 99
2020-10-08 10:00:00 12.7 3 Sur 8 Sudoeste 0 971 -- 98
2020-10-08 09:00:00 12.5 2 Sur 9 Sudeste 0 970.6 -- 97
2020-10-08 08:00:00 13.2 3 Sur 8 Sur 0 970.8 -- 98
2020-10-08 07:00:00 13.4 3 Sudeste 6 Sudeste 0 970.8 -- 98
2020-10-08 06:00:00 13.5 2 Sudeste 6 Este 0 970.9 -- 97
2020-10-08 05:00:00 13.4 2 Este 5 Sudeste 0 971.3 -- 97
2020-10-08 04:00:00 13.5 0 Calma 4 Sudeste 0 971.8 -- 97
2020-10-08 03:00:00 12.9 2 Sudeste 7 Sudeste 0 971.7 -- 95
2020-10-08 02:00:00 13.7 2 Sudeste 5 Este 0 972.1 -- 93
2020-10-08 01:00:00 14.1 2 Norte 7 Nordeste 0 972.5 -- 92
2020-10-08 00:00:00 14.1 6 Nordeste 17 Nordeste 0 972.8 -- 91
2020-10-07 23:00:00 14.5 4 Nordeste 12 Este 0 972.9 -- 90
2020-10-07 22:00:00 15.3 4 Nordeste 9 Noroeste 0 972.8 -- 90
2020-10-07 21:00:00 16.1 3 Nordeste 10 Este 0 972.7 -- 89
2020-10-07 20:00:00 17.9 3 Noroeste 12 Norte 0 972.6 -- 80
2020-10-07 19:00:00 20 4 Norte 10 Norte 0 972.2 -- 66
2020-10-07 18:00:00 21.8 4 Norte 14 Noroeste 0 971.9 -- 61
2020-10-07 17:00:00 21 3 Norte 12 Oeste 0 972.4 -- 65
2020-10-07 16:00:00 21.6 2 Sur 12 Oeste 0 972.9 -- 66
2020-10-07 15:00:00 20.6 5 Sudoeste 12 Sudoeste 0 973.5 -- 73
2020-10-07 14:00:00 19.2 4 Sur 9 Noroeste 0 973.9 -- 77
2020-10-07 13:00:00 17.6 4 Noroeste 13 Noroeste 0 974.3 -- 88
2020-10-07 12:00:00 17.3 2 Nordeste 5 Noroeste 0 974.2 -- 88
2020-10-07 11:00:00 16 3 Sudoeste 8 Oeste 0 974 -- 96
2020-10-07 10:00:00 15.6 4 Sudoeste 9 Oeste 0 973.7 -- 98
2020-10-07 09:00:00 15 6 Oeste 10 Oeste 1 973.4 -- 98
2020-10-07 08:00:00 15.1 4 Sudoeste 12 Sudoeste 0.4 973.1 -- 98
2020-10-07 07:00:00 15.1 6 Sudoeste 12 Oeste 0 973.2 -- 97
2020-10-07 06:00:00 15.1 6 Sudoeste 14 Sudoeste 0 972.9 -- 97
2020-10-07 05:00:00 15.1 6 Sudoeste 16 Sudoeste 0 972.9 -- 95
2020-10-07 04:00:00 15 9 Sudoeste 19 Sudoeste 0.2 972.8 -- 95
2020-10-07 03:00:00 15.1 7 Sudoeste 18 Oeste 0 972.7 -- 94
2020-10-07 02:00:00 15.1 7 Sudoeste 17 Sudoeste 0 972.7 -- 92
2020-10-07 01:00:00 15.1 9 Sudoeste 23 Sur 0 972.5 -- 91
2020-10-07 00:00:00 14.9 8 Sudoeste 24 Sur 0 972.3 -- 92
2020-10-06 23:00:00 15 9 Sudoeste 19 Sudoeste 0 972.4 -- 93
2020-10-06 22:00:00 15.7 10 Sudoeste 21 Sudoeste 0 972.2 -- 87
2020-10-06 21:00:00 16.2 9 Sudoeste 16 Sudoeste 0 972 -- 84
2020-10-06 20:00:00 16.6 9 Sudoeste 17 Oeste 0 971.5 -- 82
2020-10-06 19:00:00 17.4 8 Sudoeste 21 Sudoeste 0 971.5 -- 79
2020-10-06 18:00:00 18 13 Sudoeste 30 Oeste 0 971.3 -- 76
2020-10-06 17:00:00 17.7 9 Oeste 34 Sudoeste 0.6 971.4 -- 91
2020-10-06 16:00:00 19.5 17 Oeste 28 Oeste 0 971.4 -- 78
2020-10-06 15:00:00 18.8 15 Oeste 33 Oeste 0 971.6 -- 81
2020-10-06 14:00:00 18.6 14 Oeste 36 Sudoeste 0 971.3 -- 83
2020-10-06 13:00:00 17.8 15 Oeste 29 Oeste 0 971.3 -- 87
2020-10-06 12:00:00 17.1 15 Oeste 28 Oeste 0 971.2 -- 90
2020-10-06 11:00:00 16.6 10 Sudoeste 30 Sudoeste 0 970.6 -- 91
2020-10-06 10:00:00 16.1 10 Sudoeste 24 Sudoeste 0 969.8 -- 93
2020-10-06 09:00:00 15.6 8 Sudoeste 22 Sudoeste 0 969.9 -- 95
2020-10-06 08:00:00 15.6 8 Sudoeste 17 Sudoeste 0 969.9 -- 95
2020-10-06 07:00:00 15.6 9 Sudoeste 21 Oeste 0 969.4 -- 95
2020-10-06 06:00:00 15.6 10 Sudoeste 22 Sudoeste 0 968.9 -- 95
2020-10-06 05:00:00 15.6 12 Sudoeste 26 Sur 0 968.3 -- 95
2020-10-06 04:00:00 15.5 8 Sudoeste 17 Sudoeste 0 968.8 -- 96
2020-10-06 03:00:00 15.3 7 Sudoeste 19 Sudoeste 0 968.6 -- 96
2020-10-06 02:00:00 15.1 6 Sudoeste 18 Sudoeste 0 968.8 -- 97
2020-10-06 01:00:00 14.9 9 Sudoeste 23 Sudoeste 0 968.7 -- 97
2020-10-06 00:00:00 14.8 9 Sudoeste 20 Sudoeste 0 968.5 -- 97
2020-10-05 23:00:00 14.7 6 Sudoeste 18 Sudoeste 0 968.3 -- 98
2020-10-05 22:00:00 14.7 9 Sudoeste 19 Sudoeste 0 967.8 -- 96
2020-10-05 21:00:00 14.5 8 Sudoeste 23 Sudoeste 0 967.6 -- 96
2020-10-05 20:00:00 14.4 10 Sudoeste 24 Sudoeste 0.2 967.1 -- 96
2020-10-05 19:00:00 14.2 9 Sudoeste 27 Sudoeste 0 966.7 -- 96
2020-10-05 18:00:00 14.4 8 Sudoeste 25 Sudoeste 0 966.4 -- 93
2020-10-05 17:00:00 14.6 9 Sudoeste 26 Sudoeste 0 966.4 -- 90
2020-10-05 16:00:00 14.3 10 Sudoeste 25 Sudoeste 0 966.4 -- 90
2020-10-05 15:00:00 14.4 10 Sudoeste 28 Sudoeste 0 966.7 0.3 88
2020-10-05 14:00:00 13.8 11 Sudoeste 29 Oeste 0 966.7 0.9 89
2020-10-05 13:00:00 14.8 11 Sudoeste 26 Sudoeste 0 966.6 1.2 81
2020-10-05 12:00:00 13.4 12 Sudoeste 27 Sudoeste 0 966.4 -- 86
2020-10-05 11:00:00 12.7 9 Sudoeste 20 Sudoeste 0 965.8 -- 90
2020-10-05 10:00:00 11.5 9 Sudoeste 17 Oeste 0 965.4 -- 93
2020-10-05 09:00:00 9.7 8 Sudoeste 17 Sudoeste 0 965 -- 96
2020-10-05 08:00:00 9.7 5 Sudoeste 15 Sudoeste 0 964.6 -- 96
2020-10-05 07:00:00 9.2 6 Sudoeste 14 Sudoeste 0 964.4 -- 98
2020-10-05 06:00:00 9.8 7 Sudoeste 15 Sudoeste 0.2 964.1 -- 98
2020-10-05 05:00:00 9.8 5 Sudoeste 12 Sudoeste 0 963.5 -- 98
2020-10-05 04:00:00 9.9 6 Sudoeste 17 Sudoeste 0.2 963.3 -- 97
2020-10-05 03:00:00 9.8 8 Sudoeste 17 Oeste 0.8 963.1 -- 98
2020-10-05 02:00:00 10.1 4 Oeste 17 Sudoeste 1.2 963.1 -- 98
2020-10-05 01:00:00 10 6 Sudoeste 21 Oeste 0.4 962.9 -- 97
2020-10-05 00:00:00 9.9 7 Sudoeste 18 Oeste 0.2 962.7 -- 98
2020-10-04 23:00:00 9.8 6 Oeste 18 Oeste 1.2 962.5 -- 99
2020-10-04 22:00:00 9.5 7 Sudoeste 16 Oeste 0.4 962.1 -- 97
2020-10-04 21:00:00 9.9 6 Sudoeste 19 Sudoeste 0 961.9 -- 96
2020-10-04 20:00:00 10.8 10 Oeste 25 Sudoeste 0.4 961.2 -- 94
2020-10-04 19:00:00 11.4 8 Oeste 21 Noroeste 0.4 960.4 -- 96
2020-10-04 18:00:00 11.6 8 Noroeste 24 Noroeste 1.6 960.4 -- 91
2020-10-04 17:00:00 14.1 10 Oeste 21 Noroeste 0.2 959.7 -- 84
2020-10-04 16:00:00 13.4 6 Oeste 25 Noroeste 1.6 959.5 -- 85
2020-10-04 15:00:00 11.7 7 Oeste 17 Oeste 1.2 959.7 -- 94
2020-10-04 14:00:00 11.4 8 Oeste 23 Oeste 1.4 959.8 -- 90
2020-10-04 13:00:00 13.3 9 Oeste 24 Oeste 0.4 958.9 -- 84
2020-10-04 12:00:00 11.5 12 Oeste 24 Oeste 0.6 958.9 -- 91
2020-10-04 11:00:00 10.6 8 Oeste 21 Sudoeste 3.6 958.3 -- 97
2020-10-04 10:00:00 11 10 Sudoeste 22 Sudoeste 0 957.6 -- 94
2020-10-04 09:00:00 9.9 8 Sudoeste 21 Sudoeste 4 957.6 -- 97
2020-10-04 08:00:00 9.8 9 Sudoeste 25 Oeste 0 957 -- 95
2020-10-04 07:00:00 10.1 16 Oeste 24 Oeste 0 956.8 -- 95
2020-10-04 06:00:00 10.4 8 Oeste 21 Oeste 1 956.4 -- 96
2020-10-04 05:00:00 10.7 10 Oeste 19 Oeste 0 956.3 -- 97
2020-10-04 04:00:00 10.5 9 Oeste 27 Sudoeste 1.6 956.3 -- 100
2020-10-04 03:00:00 10.4 14 Sudoeste 30 Sudoeste 0 956 -- 97
2020-10-04 02:00:00 10.1 12 Sudoeste 26 Sudoeste 0.2 956.3 -- 97
2020-10-04 01:00:00 10.4 9 Sudoeste 18 Sudoeste 0 957.2 -- 94
2020-10-04 00:00:00 10.3 8 Sudoeste 20 Sudoeste 0 957.9 -- 95
2020-10-03 23:00:00 10.1 7 Sudoeste 18 Sudoeste 0 958.3 -- 96
2020-10-03 22:00:00 10.1 7 Sudoeste 18 Sudoeste 0 958.7 -- 94
2020-10-03 21:00:00 10.2 7 Sudoeste 24 Oeste 0.2 958.4 -- 96
2020-10-03 20:00:00 10.7 10 Oeste 25 Oeste 2 958.3 -- 97
2020-10-03 19:00:00 11.9 8 Sudoeste 21 Oeste 0 957.5 -- 85
2020-10-03 18:00:00 12.3 14 Oeste 36 Oeste 0 957.8 -- 84
2020-10-03 17:00:00 13.5 12 Oeste 31 Oeste 0 957.6 -- 73
2020-10-03 16:00:00 13.7 8 Oeste 23 Oeste 0 958 -- 74
2020-10-03 15:00:00 14.3 9 Oeste 32 Oeste 0 957.9 -- 69
2020-10-03 14:00:00 14.4 12 Oeste 32 Oeste 0 958.4 -- 69
2020-10-03 13:00:00 13.5 8 Oeste 21 Norte 0 958.4 -- 75
2020-10-03 12:00:00 11.5 8 Oeste 25 Oeste 0 958.4 -- 83
2020-10-03 11:00:00 10.2 10 Oeste 18 Sudoeste 0 958.1 -- 93
2020-10-03 10:00:00 9.1 3 Sudoeste 17 Sudoeste 0.2 957.5 -- 93
2020-10-03 09:00:00 7.6 4 Sur 15 Sudoeste 0.2 957.3 -- 98
2020-10-03 08:00:00 7.2 6 Sudoeste 17 Sudoeste 0.6 956.7 -- 97
2020-10-03 07:00:00 7.1 7 Sudoeste 13 Sudoeste 0 956.2 -- 98
2020-10-03 06:00:00 7.6 7 Sudoeste 13 Oeste 0.4 955.9 -- 97
2020-10-03 05:00:00 7.4 7 Sudoeste 13 Oeste 0.2 955.7 -- 97
2020-10-03 04:00:00 7.8 6 Oeste 19 Oeste 0.6 955.5 -- 98
2020-10-03 03:00:00 7.5 6 Sudoeste 13 Oeste 0 955.6 -- 98
2020-10-03 02:00:00 7.6 6 Sudoeste 9 Sudoeste 0.4 955.2 -- 98
2020-10-03 01:00:00 7.5 4 Noroeste 14 Sudoeste 1.8 955.1 -- 97
2020-10-03 00:00:00 7.5 3 Sur 17 Noroeste 1.6 954.7 -- 95
2020-10-02 23:00:00 8.4 4 Sudoeste 17 Oeste 0.2 954.4 -- 95
2020-10-02 22:00:00 8.7 6 Oeste 11 Oeste 0 953.7 -- 96
2020-10-02 21:00:00 9.2 5 Oeste 12 Oeste 0.6 953.1 -- 96
2020-10-02 20:00:00 9.5 7 Oeste 23 Oeste 0.8 952.5 -- 95
2020-10-02 19:00:00 10.1 8 Oeste 22 Sudoeste 0.2 951.7 -- 91
2020-10-02 18:00:00 9.8 6 Noroeste 32 Norte 1 951.2 -- 92
2020-10-02 17:00:00 11 8 Noroeste 38 Noroeste 0.6 950.4 -- 87
2020-10-02 16:00:00 12.5 9 Oeste 33 Oeste 0.4 949.9 -- 79
2020-10-02 15:00:00 10.9 11 Oeste 37 Noroeste 0.4 949.6 -- 93
2020-10-02 14:00:00 11 9 Oeste 24 Oeste 1.6 949.5 -- 86
2020-10-02 13:00:00 8 3 Sudoeste 24 Noroeste 1.6 949.9 -- 92
2020-10-02 12:00:00 7.9 7 Oeste 25 Noroeste 1 949.7 -- 92
2020-10-02 11:00:00 8.8 7 Noroeste 22 Norte 0.4 949.3 -- 87
2020-10-02 10:00:00 7.3 8 Oeste 23 Oeste 0 948.7 -- 92
2020-10-02 09:00:00 7.3 8 Oeste 18 Oeste 0.6 948.1 -- 91
2020-10-02 08:00:00 8.2 8 Noroeste 31 Noroeste 1 947.6 -- 90
2020-10-02 07:00:00 9.3 7 Noroeste 28 Noroeste 3.2 947.6 -- 96
2020-10-02 06:00:00 10.6 6 Oeste 35 Noroeste 0.8 946.9 -- 97
2020-10-02 05:00:00 11.7 15 Noroeste 39 Noroeste 2.4 947.1 -- 96
2020-10-02 04:00:00 12.5 15 Oeste 42 Oeste 5.6 946.6 -- 98
2020-10-02 03:00:00 13.7 14 Oeste 50 Oeste 1.2 946.7 -- 97
2020-10-02 02:00:00 14.4 21 Oeste 53 Oeste 4.4 947.8 -- 95
2020-10-02 01:00:00 14.3 23 Sudoeste 44 Sudoeste 1 948.1 -- 100
2020-10-02 00:00:00 12.7 15 Sudoeste 36 Sur 1.4 949.5 -- 98
2020-10-01 23:00:00 12.3 19 Sudoeste 44 Sur 0.6 950.8 -- 97
2020-10-01 22:00:00 12 20 Sudoeste 42 Sur 0.6 952.1 -- 97
2020-10-01 21:00:00 12.2 21 Sudoeste 55 Sudoeste 0 954 -- 92
2020-10-01 20:00:00 13.5 18 Sudoeste 50 Oeste 0 954.9 -- 80
2020-10-01 19:00:00 14.4 21 Sudoeste 41 Sudoeste 0 956.1 -- 71
2020-10-01 18:00:00 14.6 18 Sudoeste 37 Oeste 0 957.7 -- 74
2020-10-01 17:00:00 15.2 19 Sudoeste 34 Sudoeste 0 959.1 -- 72
2020-10-01 16:00:00 15.2 18 Sudoeste 30 Sudoeste 0 959.6 -- 69
2020-10-01 15:00:00 15.6 14 Sudoeste 32 Oeste 0 960.6 -- 67
2020-10-01 14:00:00 15.6 15 Sudoeste 30 Oeste 0 961.3 -- 71
2020-10-01 13:00:00 15.1 12 Sudoeste 26 Sudoeste 0 961.9 -- 75
2020-10-01 12:00:00 14.1 12 Sudoeste 21 Sudoeste 0 962.4 -- 81
2020-10-01 11:00:00 12.8 10 Sudoeste 18 Oeste 0 962.7 -- 89
2020-10-01 10:00:00 11.7 8 Sudoeste 16 Sudoeste 0 962.4 -- 95
2020-10-01 09:00:00 11.6 3 Sudoeste 24 Oeste 0 962.5 -- 98
2020-10-01 08:00:00 11.6 14 Oeste 24 Sudoeste 0 962.3 -- 96
2020-10-01 07:00:00 11.6 6 Sudoeste 14 Sudoeste 0 962.1 -- 97
2020-10-01 06:00:00 12.1 5 Oeste 21 Oeste 0.2 962 -- 96
2020-10-01 05:00:00 12.3 8 Oeste 22 Sudoeste 1.6 962.3 -- 97
2020-10-01 04:00:00 12.3 6 Sudoeste 25 Sudoeste 0 961.9 -- 97
2020-10-01 03:00:00 12.5 14 Sudoeste 25 Sudoeste 0.4 962.3 -- 97
2020-10-01 02:00:00 12.8 13 Sudoeste 30 Sudoeste 0 962.2 -- 92
2020-10-01 01:00:00 13.6 9 Sudoeste 23 Sur 0 962.2 -- 83
2020-10-01 00:00:00 14.1 8 Sur 20 Sur 0 962.8 -- 78